Henrique Oliveira

Recruteur en chef - Bahia
2 Juil 2028
Dimanche
Processus

Personnalité

Adaptabilité (8) Ambition (12) Controverse (16) Loyauté (4) Pression (13) Professionnalisme (6) Sportivité (13) Tempérament (2)

Profil

Style d'entraînement Démocratique
Diplôme Continental C
Détermination 13
Gestion des joueurs 13
Motivation 7
Discipline 11
Satisfaction professionnelle
100%
Fatigue
0%
Rôle Recruteur en chef
Salaire 70.3K p/s
Contrat 14.03.2030

Performance

Comportement Bon
Efficacité de l'entraînement
50%
Développement des joueurs
45%
Prévention des blessures
70%
Mise en place tactique
30%

Événements récents

A participé à une réunion de recrutement maintenant
A recommandé une cible de transfert maintenant
A recommandé une cible de transfert maintenant
A recommandé une cible de transfert maintenant
A participé à une réunion de recrutement 7j
A recommandé une cible de transfert 7j
A recommandé une cible de transfert 7j
A recommandé une cible de transfert 7j

Suivi en cours

349
Joueur Club Statut Capacité Confiance Observé Dernière observation Dernier vote
Luan Freitas Fortaleza Actif 113 / 110 79% 1 03.06.2028 Approuver
Kevin Fulham Actif 153 / 145 40% 2 31.05.2028 -
Christian Pulisic AC Milan Actif 167 / 170 40% 1 31.05.2028 -
Max Johnston Derby County Actif 131 / 132 40% 1 29.05.2028 -
Nico González Newcastle United Actif 166 / 174 40% 9 28.05.2028 -
Jayden Bogle Leeds United Actif 148 / 137 40% 6 28.05.2028 -
Sandro Tonali Tottenham Actif 181 / 181 40% 1 28.05.2028 -
Alex Scott Bournemouth Actif 163 / 164 40% 9 27.05.2028 -
Tino Livramento Newcastle United Actif 170 / 161 40% 4 27.05.2028 -
Max Bird Birmingham Actif 135 / 144 40% 5 26.05.2028 -
Reece James Chelsea Actif 182 / 170 40% 2 26.05.2028 -
Bafodé Diakité Plymouth Argyle Actif 154 / 151 40% 2 26.05.2028 -
Amadou Onana Aston Villa Actif 153 / 163 40% 2 25.05.2028 -
Vitaly Janelt Derby County Actif 146 / 139 40% 4 25.05.2028 -
James Justin Leeds United Actif 142 / 146 40% 1 25.05.2028 -
Mads Hermansen West Ham United Actif 141 / 148 40% 2 24.05.2028 -
Joe Walsh Queens Park Rangers Actif 118 / 129 40% 1 24.05.2028 -
Maximiliano Araújo West Ham United Actif 152 / 163 40% 9 23.05.2028 -
Quinten Timber Crystal Palace Actif 156 / 161 40% 5 23.05.2028 -
Jhon Solís Birmingham Actif 139 / 146 40% 1 21.05.2028 -
Manuel Ugarte Leicester City Actif 152 / 148 40% 6 20.05.2028 -
Manu Koné AS Roma Actif 175 / 168 40% 2 20.05.2028 -
Nordi Mukiele Sunderland Actif 145 / 159 40% 2 19.05.2028 -
James Trafford Leeds United Actif 159 / 145 40% 3 18.05.2028 -
Lukáš Horníček Burnley Actif 154 / 165 40% 6 18.05.2028 -
Elia Caprile Cagliari Actif 153 / 149 40% 4 17.05.2028 -
Gianluca Saro Foggia Actif 126 / 128 40% 3 17.05.2028 -
Cesare Galeotti Trapani Actif 125 / 113 40% 1 17.05.2028 -
George Evans Exeter City Actif 110 / 129 40% 2 15.05.2028 -
Filippo Manfrin Arzignano Actif 108 / 112 40% 1 15.05.2028 -
Matteo Ruggeri Middlesbrough Actif 152 / 163 40% 10 12.05.2028 -
Neco Williams Wrexham Actif 153 / 136 40% 4 12.05.2028 -
Mats Wieffer Brighton Actif 159 / 147 40% 2 11.05.2028 -
Welington Southampton Actif 140 / 135 40% 5 10.05.2028 -
Lamare Bogarde Reading Actif 144 / 143 40% 4 10.05.2028 -
Nathan Collins Brentford Actif 155 / 151 40% 2 10.05.2028 -
Ethan Galbraith Swansea City Actif 145 / 132 40% 4 09.05.2028 -
Callum Brittain Middlesbrough Actif 134 / 141 40% 4 09.05.2028 -
Moisés Caicedo Chelsea Actif 169 / 183 40% 9 08.05.2028 -
Odel Offiah Shrewsbury Town Actif 123 / 133 40% 1 07.05.2028 -
Pedro Porro Tottenham Actif 155 / 152 40% 2 06.05.2028 -
Xaver Schlager Nottingham Forest Actif 155 / 146 40% 4 04.05.2028 -
Will Dennis Milton Keynes Dons Actif 118 / 129 40% 2 04.05.2028 -
Timothy Castagne Stoke City Actif 140 / 130 40% 2 02.05.2028 -
Aaron Hickey Brentford Actif 150 / 156 40% 4 01.05.2028 -
Archie Gray Southampton Actif 160 / 153 40% 4 30.04.2028 -
Exequiel Palacios Lazio Actif 156 / 170 40% 2 29.04.2028 -
Jacob Chapman Huddersfield Town Actif 121 / 129 40% 3 24.04.2028 -
Joe Rodon Blackburn Rovers Actif 148 / 131 40% 2 24.04.2028 -
Robert Cook Accrington Stanley Actif 108 / 108 40% 1 24.04.2028 -
Oliver Dovin Coventry City Actif 139 / 147 40% 4 22.04.2028 -
Shea Charles Southampton Actif 148 / 151 40% 3 22.04.2028 -
Oliver Skipp Leicester City Actif 145 / 150 40% 1 21.04.2028 -
André Wolverhampton Actif 148 / 158 40% 1 21.04.2028 -
Boubacar Kamara Aston Villa Actif 163 / 172 40% 5 18.04.2028 -
Brooke Norton-Cuffy Hull City Actif 149 / 142 40% 1 18.04.2028 -
Andrey Santos Bolton Wanderers Actif 141 / 155 40% 1 17.04.2028 -
Angeliño AS Roma Actif 147 / 148 40% 3 16.04.2028 -
Tosin Adarabioyo West Bromwich Albion Actif 149 / 149 40% 1 16.04.2028 -
Jarrad Branthwaite Everton Actif 161 / 149 40% 3 15.04.2028 -
Christos Mandas Lazio Actif 154 / 141 40% 2 14.04.2028 -
Anthony Patterson Wrexham Actif 133 / 143 40% 4 10.04.2028 -
Gabriel Brazão Santos Actif 135 / 134 40% 9 10.04.2028 -
Renan Lodi Atlético Mineiro Actif 143 / 147 40% 5 10.04.2028 -
Agustín Giay Palmeiras Actif 135 / 139 40% 5 10.04.2028 -
Matheus Bidu Corinthians Actif 129 / 126 40% 5 10.04.2028 -
Ousmane Diomande Nottingham Forest Actif 155 / 150 40% 1 07.04.2028 -
Jan Paul van Hecke Tottenham Actif 165 / 155 40% 2 06.04.2028 -
Adam Wharton Crystal Palace Actif 160 / 158 40% 3 03.04.2028 -
Lucas Paquetá Flamengo Actif 146 / 135 40% 4 01.04.2028 -
Derry Murkin Derby County Actif 132 / 140 40% 1 01.04.2028 -
Sam Proctor Salford City Actif 122 / 116 40% 1 01.04.2028 -
Jake O'Brien Everton Actif 146 / 137 40% 1 28.03.2028 -
Lucas Veríssimo Santos Actif 138 / 143 40% 2 27.03.2028 -
Bruno Gomes Internacional Actif 140 / 138 40% 1 25.03.2028 -
William Cruzeiro Actif 137 / 139 40% 1 20.03.2028 -
Ángelo Preciado Atlético Mineiro Actif 127 / 121 40% 3 18.03.2028 -
Marcos Antonio Sport Recife Actif 136 / 130 40% 3 17.03.2028 -
Breno Bidon Corinthians Actif 133 / 140 40% 2 17.03.2028 -
Sven Botman Newcastle United Actif 163 / 165 40% 1 16.03.2028 -
Enzo Díaz Sport Recife Actif 139 / 138 40% 2 15.03.2028 -
Myles Roberts Cambridge United Actif 111 / 109 40% 2 14.03.2028 -
Sam Tickle Modena Actif 145 / 128 40% 2 14.03.2028 -
Danilo Botafogo Actif 140 / 143 40% 3 14.03.2028 -
Paulo Henrique Vasco da Gama Actif 131 / 134 40% 4 14.03.2028 -
Denys Tvardovskyi Prykarpattia Actif 116 / 119 40% 1 14.03.2028 -
Joe Whitworth Wigan Athletic Actif 125 / 114 40% 2 13.03.2028 -
Jordan Amissah Burton Albion Actif 113 / 106 40% 1 13.03.2028 -
Masoud Hajsafi Padideh Actif 117 / 98 40% 1 12.03.2028 -
Youssouf Fofana AC Milan Actif 160 / 161 40% 2 10.03.2028 -
Léo Ortiz Flamengo Actif 141 / 126 40% 2 10.03.2028 -
Matheus Henrique Cruzeiro Actif 134 / 123 40% 2 07.03.2028 -
Fabrício Bruno Cruzeiro Actif 131 / 128 40% 3 05.03.2028 -
Lucas Piton Vasco da Gama Actif 143 / 142 40% 2 01.03.2028 -
Robert Renan Zenit Actif 141 / 120 40% 2 27.02.2028 -
Will Hughes Bloemfontein Celtic Actif 138 / 134 40% 1 26.02.2028 -
Lyanco Atlético Mineiro Actif 140 / 127 40% 1 22.02.2028 -
José Hurtado Bragantino Actif 128 / 124 40% 1 20.02.2028 -
Alexandro Bernabei Internacional Actif 129 / 135 40% 1 12.02.2028 -
Santiago Sosa Vasco da Gama Actif 132 / 121 40% 1 07.02.2028 -
Tammy Abraham Aston Villa Actif 146 / 135 40% 3 28.12.2027 -
Luca Langoni Columbus Crew Actif 125 / 121 40% 1 28.12.2027 -
Christian Kouamé Atlético Mineiro Actif 135 / 119 72% 1 27.12.2027 Approuver
João Pedro Chelsea Actif 151 / 159 40% 1 27.12.2027 -
Thiago Brentford Actif 155 / 145 40% 1 27.12.2027 -
Borja Sainz Udinese Actif 153 / 137 40% 3 13.12.2027 -
Benjamín Rollheiser Santos Actif 131 / 143 40% 1 13.12.2027 -
Esquerdinha Notts County Actif 128 / 141 40% 2 08.12.2027 -
Alani Maritimo Actif 112 / 132 40% 1 08.12.2027 -
Matteo Pérez Vinlöf Dinamo Zagreb Actif 117 / 143 40% 1 07.12.2027 -
Pablo Lúcio St. Gallen Actif 100 / 120 40% 1 07.12.2027 -
Caleb Yirenkyi Coventry City Actif 132 / 152 40% 1 07.12.2027 -
Seydou Fofana Pacos de Ferreira Actif 92 / 119 40% 1 01.12.2027 -
Gideon Manaseh Ikorodu City Actif 87 / 96 40% 1 01.12.2027 -
Daniel Johan Skaarud Sandefjord Actif 91 / 93 40% 1 30.11.2027 -
Fabrizio Correa Juventud Actif 129 / 114 40% 8 28.11.2027 -
Vladimir Nazarov Pakhtakor Actif 112 / 110 40% 4 28.11.2027 -
Abduvohid Ne'matov Nasaf Actif 127 / 142 40% 5 28.11.2027 -
Georginio Rutter Brighton Actif 157 / 158 40% 8 27.11.2027 -
Sol Brynn Bradford City Actif 129 / 135 40% 3 26.11.2027 -
Filip Marschall Stevenage Actif 116 / 133 40% 2 26.11.2027 -
Federico Losas Chacarita Juniors Actif 126 / 124 40% 7 24.11.2027 -
Pavlo Isenko Universitatea Craiova Actif 120 / 139 40% 1 24.11.2027 -
Murphy Cooper Plymouth Argyle Actif 127 / 136 40% 2 23.11.2027 -
Carl Rushworth Aston Villa Actif 160 / 154 40% 4 23.11.2027 -
Oliver Petersen Odd Actif 132 / 128 40% 3 23.11.2027 -
Tiago Freitas Benfica Actif 126 / 122 40% 2 22.11.2027 -
Josh Nichols Oldham Athletic Actif 120 / 111 40% 2 22.11.2027 -
Maxim Borisko CSKA Moscow Actif 120 / 128 40% 1 22.11.2027 -
Agustín Obregón River Plate Actif 112 / 122 40% 1 22.11.2027 -
Diego Romero Universitario Actif 123 / 128 40% 4 20.11.2027 -
Alejandro Rodríguez Melgar Actif 123 / 125 40% 5 20.11.2027 -
Nicolás Bolcato Independiente Rivadavia Actif 120 / 116 40% 7 20.11.2027 -
CJ dos Santos San Diego Football Club Actif 121 / 129 40% 7 19.11.2027 -
Diego Enríquez Sporting Cristal Actif 138 / 146 40% 6 19.11.2027 -
Novak Mićović LA Galaxy Actif 127 / 121 40% 7 18.11.2027 -
Ľubomír Belko Viking Actif 137 / 144 40% 3 18.11.2027 -
Killian Cahill Leyton Orient Actif 118 / 127 40% 1 18.11.2027 -
Roman Celentano FC Cincinnati Actif 118 / 136 40% 5 17.11.2027 -
Laureano Martínez Talleres Actif 115 / 114 40% 4 17.11.2027 -
Robin Roefs Sunderland Actif 142 / 141 40% 2 16.11.2027 -
John Pulskamp Sporting Kansas City Actif 116 / 106 40% 9 15.11.2027 -
Nahuel Galardi Maipú Actif 118 / 110 40% 5 15.11.2027 -
Mikheil Makatsaria Torpedo Kutaisi Actif 116 / 123 40% 1 14.11.2027 -
Radek Vítek Middlesbrough Actif 145 / 142 40% 2 13.11.2027 -
Andrés Gómez Vasco da Gama Actif 132 / 134 40% 6 13.11.2027 Observer
Frankarlos Benítez Caracas Actif 110 / 107 40% 1 13.11.2027 -
Fer López Wolverhampton Actif 132 / 149 40% 1 13.11.2027 -
Reda Khadra Qarabag Actif 134 / 138 40% 1 13.11.2027 -
Lautaro Maldonado Instituto Actif 121 / 124 40% 4 11.11.2027 -
Marcel Ruiz Crystal Palace Actif 151 / 147 40% 1 11.11.2027 -
Brennan Johnson Middlesbrough Perdu 143 / 139 40% 2 10.11.2027 -
Gonzalo Fulham Actif 145 / 153 40% 4 09.11.2027 -
Álvaro Barreal Atlético Mineiro Actif 136 / 141 40% 1 09.11.2027 -
Lautaro Morales Lanús Actif 136 / 124 40% 4 08.11.2027 -
Nicolás Sumavil Platense Actif 121 / 127 40% 5 07.11.2027 -
Luciano Jachfe Nueva Chicago Actif 116 / 121 40% 2 07.11.2027 -
Francisco Salerno Defensores Unidos Actif 106 / 119 40% 3 06.11.2027 -
Chemsdine Talbi Sunderland Actif 147 / 155 40% 1 04.11.2027 -
Bernardo Lima Porto Actif 103 / 129 40% 1 02.11.2027 -
Nazareno Roselli Defensa y Justicia Actif 119 / 111 40% 1 02.11.2027 -
Cristopher Varela Deportivo La Guaira Actif 125 / 121 40% 3 29.10.2027 -
Pedro de la Vega Columbus Crew Actif 143 / 129 40% 3 28.10.2027 -
Luka Gavran Toronto FC Actif 119 / 124 40% 10 26.10.2027 -
Giorgi Mamardashvili Liverpool Actif 163 / 159 40% 3 24.10.2027 -
Ángel Maciel Tacuarembo Actif 110 / 98 40% 5 22.10.2027 -
Gonçalo Oliveira Benfica Actif 120 / 110 40% 3 21.10.2027 -
Jonny Shore New York City Actif 94 / 109 40% 1 21.10.2027 -
Lucas Bergvall Tottenham Actif 159 / 161 40% 2 20.10.2027 -
Vinícius Lira São Paulo Négociation 113 / 115 40% 1 20.10.2027 -
Árni Marinó Einarsson IA Actif 116 / 123 40% 1 18.10.2027 -
Matheus Cunha Cruzeiro Actif 138 / 135 40% 1 17.10.2027 -
Miguel Figueiredo Benfica Actif 120 / 138 40% 2 15.10.2027 -
Victor Hernandez Santa Fe Actif 118 / 122 40% 2 15.10.2027 -
Ben Gannon Doak Charlton Athletic Actif 148 / 136 40% 1 15.10.2027 -
Maurício Palmeiras Actif 144 / 132 40% 1 15.10.2027 -
Nicolas Sport Recife Actif 104 / 100 40% 2 12.10.2027 -
Eduardo Felicíssimo Sporting CP Actif 122 / 128 40% 1 12.10.2027 -
Joel Ezra Enyimba Actif 100 / 113 40% 1 12.10.2027 -
Gabriel Grando São Paulo Actif 135 / 139 40% 4 11.10.2027 -
Jakub Ojrzyński Orebro Actif 108 / 115 40% 2 11.10.2027 -
Josh Keeley Luton Town Actif 143 / 129 40% 3 09.10.2027 -
Bruno Antúnez Boston River Actif 112 / 109 40% 3 09.10.2027 -
Souffian El Karouani Al-Qadisiyah Actif 128 / 127 40% 2 09.10.2027 -
Rodrigo Gomes Wolverhampton Actif 145 / 155 40% 1 09.10.2027 -
Malick Fofana Sunderland Actif 144 / 140 40% 1 08.10.2027 -
Emile Smith Rowe Cardiff City Actif 149 / 151 40% 2 07.10.2027 -
Mikkel Damsgaard Brentford Actif 148 / 140 40% 1 07.10.2027 -
Jaidon Anthony Derby County Actif 133 / 151 40% 1 07.10.2027 -
Patrick Schulte Columbus Crew Actif 127 / 133 40% 2 06.10.2027 -
Zion Suzuki Aston Villa Actif 158 / 154 40% 2 02.10.2027 -
Daniil Ustimenko Tobol Actif 112 / 113 40% 1 01.10.2027 -
Jhon Jhon Zenit Actif 142 / 117 40% 1 01.10.2027 -
Mads Kikkenborg Molde Actif 113 / 130 40% 6 28.09.2027 -
Noni Madueke Arsenal Actif 165 / 155 40% 1 22.09.2027 -
Temirlan Anarbekov Kairat Actif 129 / 140 40% 1 20.09.2027 -
Yehor Yarmoliuk Brentford Actif 145 / 137 40% 1 19.09.2027 -
Dango Ouattara Leicester City Actif 158 / 163 40% 1 19.09.2027 -
Amine Adli Bournemouth Actif 157 / 150 40% 1 19.09.2027 -
Pedro Soma San Diego Football Club Actif 116 / 105 40% 2 18.09.2027 -
Gor Matinyan Urartu Actif 101 / 110 40% 1 16.09.2027 -
Isaac Boehmer Vancouver Whitecaps Actif 100 / 114 40% 3 10.09.2027 -
Miguel Acosta Argentinos Juniors Actif 116 / 121 40% 1 08.09.2027 -
Ruly Padova Actif 116 / 108 40% 2 30.08.2027 -
Oufa Shobeir MC Alger Actif 128 / 139 40% 1 30.08.2027 -
Martinelli Fluminense Actif 148 / 140 40% 1 29.08.2027 -
Iliman N'Diaye Everton Actif 166 / 177 40% 1 29.08.2027 -
Piero Hincapié Arsenal Actif 164 / 162 40% 1 27.08.2027 -
James Garner Everton Actif 146 / 153 40% 1 27.08.2027 -
Souza Tottenham Actif 133 / 135 40% 1 26.08.2027 -
Azizbek To'lqinbekov Bunyodkor Actif 96 / 93 40% 1 26.08.2027 -
Abdul Fatawu Leicester City Actif 148 / 127 40% 1 22.08.2027 -
Liel Abada Inter Miami CF Actif 127 / 151 40% 1 21.08.2027 -
Mohammed Abu-Nil Bnei Sakhnin Actif 102 / 107 40% 1 19.08.2027 -
Francesco D'Alterio Ternana Actif 111 / 100 40% 2 18.08.2027 -
Adrián Bernabé Parma Actif 146 / 131 40% 1 17.08.2027 -
Stav Toriel Hapoel Tel Aviv Actif 133 / 135 40% 1 17.08.2027 -
Antonio Vergara Napoli Actif 143 / 144 40% 1 16.08.2027 -
Billy Gilmour Napoli Actif 144 / 167 40% 1 16.08.2027 -
Matías Soulé AS Roma Actif 160 / 148 40% 1 15.08.2027 -
Mile Svilar AS Roma Actif 174 / 157 40% 1 13.08.2027 -
Arthur Augusto Semen Padang Actif 117 / 117 40% 1 13.08.2027 -
Hans Nicolussi Caviglia Parma Actif 133 / 126 40% 1 13.08.2027 -
Unai Gómez Udinese Actif 131 / 139 40% 1 13.08.2027 -
Ludovico Del Sorbo Sorrento Actif 111 / 118 40% 1 11.08.2027 -
Nicolò Fagioli Fiorentina Actif 138 / 135 40% 1 11.08.2027 -
William Rovida Pro Patria Actif 107 / 128 40% 1 09.08.2027 -
Kevin Pinto Benfica Actif 96 / 102 40% 2 08.08.2027 -
Elia Boseggia Novara Actif 112 / 102 40% 1 08.08.2027 -
Olaniyi Saheed Kwara United Actif 97 / 78 40% 1 08.08.2027 -
Jacob Ramsey Newcastle United Actif 148 / 169 40% 1 06.08.2027 -
Charlie Gray Fleetwood Town Actif 95 / 90 40% 1 20.07.2027 -
Maldini Kacurri Grimsby Town Actif 96 / 88 40% 1 21.06.2027 -
Martim Cunha Porto Actif 108 / 123 40% 1 21.06.2027 -
Sascha Britschgi AC Milan Actif 114 / 146 40% 1 07.06.2027 -
Josh King Newcastle United Actif 146 / 144 40% 1 07.06.2027 -
Patrick Cutrone Monza Actif 138 / 126 40% 6 31.05.2027 -
Joe Gelhardt Hull City Actif 139 / 120 40% 11 31.05.2027 -
Taty Castellanos West Ham United Actif 154 / 133 40% 3 31.05.2027 Observer
Nicolas Jackson Aston Villa Actif 145 / 157 40% 4 27.05.2027 -
Lorenzo Colombo Genoa Actif 136 / 143 40% 6 26.05.2027 -
Eddie Nketiah Crystal Palace Actif 150 / 135 40% 4 23.05.2027 -
Callum O'Hare Sheffield United Actif 135 / 126 40% 11 22.05.2027 -
Ilyas Ansah Hull City Actif 129 / 134 40% 5 22.05.2027 -
Hwang Hee-Chan Wolverhampton Actif 143 / 142 40% 4 21.05.2027 -
Che Adams Torino Actif 148 / 150 40% 1 20.05.2027 -
Gianluca Scamacca Atalanta Actif 148 / 160 40% 3 19.05.2027 -
Yoane Wissa Newcastle United Actif 133 / 143 40% 10 17.05.2027 -
Oli McBurnie Hull City Actif 143 / 142 40% 6 15.05.2027 -
Zian Flemming Ipswich Town Actif 138 / 138 40% 5 13.05.2027 -
Tyrese Campbell Sheffield United Actif 128 / 125 40% 2 13.05.2027 -
Ismaïla Sarr Crystal Palace Actif 160 / 164 40% 1 11.05.2027 -
Mohamed-Ali Cho Hull City Actif 144 / 140 40% 10 09.05.2027 -
Fábio Carvalho Brentford Actif 139 / 132 40% 3 07.05.2027 -
Jørgen Strand Larsen Brighton Actif 151 / 131 40% 1 07.05.2027 -
Nicolò Zaniolo Udinese Actif 146 / 124 40% 2 04.05.2027 -
Jarrod Bowen West Ham United Actif 160 / 161 40% 1 04.05.2027 -
Giacomo Raspadori Atalanta Actif 151 / 146 40% 1 01.05.2027 -
Rodrigo Muniz Fulham Actif 140 / 148 40% 2 19.04.2027 -
Bertuğ Yıldırım Basaksehir Actif 136 / 115 40% 1 16.04.2027 -
Arthur Cabral Botafogo Actif 138 / 139 40% 17 11.04.2027 -
Claudio Spinelli Vasco da Gama Actif 131 / 136 40% 11 10.04.2027 -
Santiago Pierotti Lecce Actif 135 / 136 40% 3 09.04.2027 -
Aune Heggebø West Bromwich Albion Actif 119 / 131 40% 2 06.04.2027 -
Domagoj Drožđek Tractor Actif 121 / 126 40% 4 05.04.2027 -
Keinan Davis Udinese Actif 138 / 143 40% 1 04.04.2027 -
Oh Hyeon-Gyu Besiktas Actif 116 / 124 40% 1 03.04.2027 -
Jackson Muleka Konyaspor Actif 137 / 139 40% 2 01.04.2027 -
Sorriso Famalicao Actif 135 / 115 40% 3 27.03.2027 -
Brian Brobbey Sunderland Actif 142 / 149 40% 1 27.03.2027 -
Mateo Pellegrino Fiorentina Actif 129 / 142 40% 1 25.03.2027 -
Yanis Begraoui Estoril Praia Actif 123 / 151 40% 4 24.03.2027 -
Steven Bergwijn Al-Ittihad Actif 159 / 148 40% 4 20.03.2027 -
Leo Castledine Middlesbrough Actif 136 / 114 40% 1 19.03.2027 -
Roberto Fernández Braga Actif 137 / 158 40% 14 11.03.2027 -
Elijah Adebayo Luton Town Actif 117 / 123 40% 1 23.02.2027 -
Yousef Salech Cardiff City Actif 117 / 124 40% 2 21.02.2027 -
Ismael Díaz Leon Actif 121 / 138 40% 6 16.02.2027 -
Thierry Ambrose KV Kortrijk Actif 120 / 138 40% 2 15.02.2027 -
Figueiredo Alverca Actif 136 / 134 40% 7 12.02.2027 -
Juninho Pumas UNAM Actif 125 / 141 40% 5 08.02.2027 -
Carlos Vinícius Grêmio Actif 143 / 124 40% 4 08.02.2027 -
Fran Navarro Braga Actif 129 / 113 40% 5 07.02.2027 -
Hugo Cuypers Monterrey Actif 134 / 120 40% 2 07.02.2027 -
Esteban Lepaul Stade Rennais Actif 134 / 138 40% 1 02.02.2027 -
Gustavo Silva Vitoria Guimaraes Actif 116 / 123 40% 6 29.01.2027 -
Dwight McNeil Crystal Palace Actif 149 / 127 40% 3 24.01.2027 -
Isidro Pitta Bragantino Actif 137 / 116 40% 4 22.01.2027 -
Mateo Cassierra Atlético Mineiro Actif 135 / 119 40% 6 22.01.2027 -
Negueba Mirassol Actif 130 / 129 40% 3 20.01.2027 -
José Manuel López Palmeiras Actif 128 / 146 40% 2 15.01.2027 -
Dodi Lukébakio Benfica Actif 138 / 149 40% 8 06.01.2027 -
Memphis Depay Corinthians Actif 138 / 131 69% 1 14.12.2026 Approuver
Víctor Gómez Braga Actif 144 / 122 40% 1 14.12.2026 -
Justo Giani Umraniyespor Actif 114 / 111 40% 1 02.12.2026 -
Roberto Alvarado Borussia Mönchengladbach Actif 139 / 139 66% 1 01.12.2026 Approuver
José Sampaio Vizela Actif 115 / 101 40% 1 01.12.2026 -
Mathias De Amorim Famalicao Actif 128 / 126 40% 1 01.12.2026 -
Facundo Colidio Vasco da Gama Actif 131 / 115 40% 1 29.11.2026 -
Henrique Araújo Casa Pia Actif 120 / 112 40% 2 24.11.2026 -
Vinícius Lopes Santa Clara Actif 112 / 133 40% 6 24.11.2026 -
Tamble Monteiro Rio Ave Actif 126 / 117 40% 3 23.11.2026 -
Zé Leite Moreirense Actif 124 / 113 40% 2 21.11.2026 -
Ianis Stoica Estrela da Amadora Actif 123 / 125 40% 3 21.11.2026 -
Vitinho Internacional Actif 134 / 138 40% 1 21.11.2026 -
Morgan Guilavogui Real Salt Lake Actif 131 / 107 40% 2 19.11.2026 -
Rafael Navarro Famalicao Actif 119 / 138 40% 3 17.11.2026 -
Erik Lira Cruz Azul Actif 129 / 116 40% 1 17.11.2026 -
Sergi Altimira Sporting CP Actif 136 / 132 40% 1 17.11.2026 -
Nehuén Pérez Porto Actif 129 / 141 40% 1 17.11.2026 -
Martín Tejón Maritimo Actif 119 / 108 40% 1 13.11.2026 -
André Lacximicant Estoril Praia Actif 115 / 119 40% 2 09.11.2026 -
Luka Jović CFR Cluj Actif 135 / 149 40% 1 09.11.2026 -
Dylan Nandín Arouca Actif 109 / 102 40% 1 09.11.2026 -
Alejandro Piedrahita Deportivo Pereira Actif 120 / 114 40% 2 08.11.2026 -
Lucas Duarte Felgueiras Actif 103 / 94 40% 1 08.11.2026 -
Petar Musa FC Dallas Actif 139 / 121 40% 5 30.10.2026 -
Wilson Isidor Sunderland Actif 129 / 147 40% 4 26.10.2026 -
Pedro Flamengo Actif 139 / 136 40% 6 25.10.2026 -
Wessam Abou Ali Columbus Crew Actif 126 / 134 40% 3 24.10.2026 -
Yassin Fortuné Vizela Actif 98 / 123 40% 1 21.10.2026 -
Guilherme Neiva AVS Actif 104 / 104 40% 1 16.10.2026 -
Kévin Denkey FC Cincinnati Actif 129 / 116 40% 1 15.10.2026 -
Tomás Molina Argentinos Juniors Actif 119 / 133 40% 1 15.10.2026 -
Gabriel Silva Braga Actif 120 / 121 40% 1 11.10.2026 -
Alexis Vega Feyenoord Actif 133 / 140 40% 2 10.10.2026 -
Myrto Uzuni Austin FC Actif 125 / 135 40% 1 03.10.2026 -
Victor Olatunji Real Salt Lake Actif 109 / 125 40% 1 03.10.2026 -
Jordan Morris Seattle Sounders Actif 119 / 108 40% 2 30.09.2026 -
Nicolò Tresoldi Club Brugge Actif 119 / 117 40% 1 30.09.2026 -
Talles Magno New York City Actif 118 / 123 40% 3 27.09.2026 -
Alexey Miranchuk Atlanta United FC Actif 135 / 156 40% 3 25.09.2026 -
Dejan Joveljić Seattle Sounders Actif 121 / 145 40% 1 22.09.2026 -
Jorge Aguirre Torreense Actif 108 / 95 40% 1 21.09.2026 -
Kelvin Yeboah Minnesota United FC Actif 115 / 133 40% 1 20.09.2026 -
Leo Ceara Kashima Antlers Actif 130 / 136 40% 1 07.09.2026 -
Timo Werner San Jose Earthquakes Actif 122 / 111 40% 2 05.09.2026 -
Ricardo Horta Braga Actif 157 / 132 40% 3 04.09.2026 -
Josh Sargent Toronto FC Actif 138 / 124 40% 1 03.09.2026 -
Rodrigo Castillo Fluminense Actif 125 / 132 40% 2 01.09.2026 -
Antonio Sanabria Internacional Actif 136 / 118 40% 1 31.08.2026 -
Luis Suárez Sporting CP Actif 141 / 138 40% 2 20.08.2026 -
Umar Sadiq Valencia Actif 142 / 143 40% 1 10.08.2026 -
Jonathan Dubasin Osasuna Actif 146 / 136 40% 1 08.08.2026 -
Tani Oluwaseyi Villarreal Actif 142 / 139 40% 1 06.08.2026 -
Joshua Zirkzee Manchester United Actif 131 / 134 40% 1 05.08.2026 -
Jorge De Frutos Rayo Vallecano Actif 158 / 162 40% 1 04.08.2026 -
Mikel Oyarzábal Real Sociedad Actif 145 / 154 40% 1 03.08.2026 -
Gabriel Martinelli Arsenal Actif 171 / 141 40% 1 01.08.2026 -